Airfield :
LOGIN :

Register | Disclaimer

   EN    FR    IT 

 










Legend :    VFR   Marginal VFR   IFR   Intensive IFR   Very Intensive IFR
Visi :
Ceiling :
>= 8 km
>= 3000ft
5 to 8 km
1000 to 3000 ft
1500m to 5 km
500 to 1000 ft
800 to 1500m
200 to 500 ft
< 800m
< 200 ft
Symbols :   Thunderstorms  Fog  Heavy snow  Heavy precipitations  Wind > 20 kt
SIGMETs :     Misc.  Thunderstorms  Icing  Turbulence  Mountain Waves  Volcanic Ashes






- Airport Elevation : 70 ft
- IATA code : LEI


LEAM - Almeria

CURRENT METAR :
  • 140700Z 02003KT 290V070 CAVOK 27/18 Q1016

EXPIRED METARs :
  • 140630Z VRB02KT CAVOK 26/15 Q1016
  • 140600Z 10003KT 070V140 CAVOK 25/14 Q1015
  • 140530Z 05004KT 010V110 CAVOK 24/14 Q1015
  • 140500Z VRB03KT CAVOK 25/14 Q1015
  • 140430Z 07006KT CAVOK 24/14 Q1015

TAF TAF LEAM
Valid from the 14 at 03:00 until the 15 at 03:00 UTC


140200Z 1403/1503 VRB03KT CAVOK TX33/1414Z TN24/1405Z
PROB40
TEMPO 1403/1406 34010KT
BECMG 1409/1412 09014KT
PROB30 1415/1419 18007KT
BECMG 1423/1502 VRB02KT



MET'MAP, your aeronautical weather chart ! - Copyright ORBIFLY December 2007 - Disclaimer

ORBIFLY MET'MAP TEAM :

Programming & Development : Alexandra Zaïnal
Concept & original design : Baudouin d'Aumeries
Assistance for programming : Marc-Olivier Méhu
Technical & hardware support : Manuel Goepfert

Contact : metmap@orbifly.com




SOURCES & CREDITS :

   NOAA